Terminal Aerodrome Forecast
Issued by NWS

Home | Current Version | Previous Version | Text Only | Print | Product List | Glossary On
Versions: 1 2 3 4 5 6 7 8 9 10 11 12 13 14 15 16 17 18 19 20 21 22 23 24 25 26 27 28 29 30 31
000
FTUS43 KGRB 040701 AAA
TAFRHI
TAF AMD
KRHI 040701Z 0407/0506 29005KT 6SM BR SCT200
      TEMPO 0407/0411 1/4SM FG OVC002
     FM041400 10003KT 5SM FU SCT035
     FM041800 21004KT 6SM FU BKN040
     FM050100 18003KT 5SM BR SCT040=

USA.gov is the U.S. government's official web portal to all federal, state and local government web resources and services.